Al Khubar, Saudi Arabia
Current Conditions -  °F | °C
As of 1:00 AM on Thursday 23 Oct 2014 (Local Time) from OEDR Reporting Station
Clear Clear  
Wind Chill: 73°   Ceiling: Unl
Heat Index: 73°   Visibility: 6mi
Dew Point: 59°   Wind: 6mph
Humidity: 61%   Direction: 290°WNW
Pressure: 29.97"   Gusts: NA
Location:  26.29°N, 50.21°E
Report Text: OEDR 222200Z 29005KT CAVOK 23/15 Q1015 NOSIG
Loading
Personal Weather Stations






























Interactive Weather Map
Tropical Storm Tracking
New forecast layout! Learn more

10-Day Weather Forecast

Advertisements
Track Severe Weather on mobile